Airfield :
LOGIN :

Register | Disclaimer

   EN    FR    IT 

 










Legend :    VFR   Marginal VFR   IFR   Intensive IFR   Very Intensive IFR
Visi :
Ceiling :
>= 8 km
>= 3000ft
5 to 8 km
1000 to 3000 ft
1500m to 5 km
500 to 1000 ft
800 to 1500m
200 to 500 ft
< 800m
< 200 ft
Symbols :   Thunderstorms  Fog  Heavy snow  Heavy precipitations  Wind > 20 kt
SIGMETs :     Misc.  Thunderstorms  Icing  Turbulence  Mountain Waves  Volcanic Ashes







- Airport Elevation : 80 ft
- IATA code : LPL
- Download approach charts


EGGP - Liverpool John Lennon

CURRENT METAR :
  • 250120Z 32003KT CAVOK 16/14 Q1018

EXPIRED METARs :
  • 250050Z 33004KT CAVOK 15/14 Q1018
  • 250020Z VRB03KT CAVOK 16/14 Q1019
  • 242350Z 29005KT CAVOK 17/15 Q1019
  • 242320Z VRB03KT CAVOK 16/14 Q1019
  • 242250Z 32005KT CAVOK 16/14 Q1019

TAF TAF EGGP
Valid from the 25 at 00:00 until the 26 at 00:00 UTC


242259Z 2500/2524 32005KT 9999 FEW006
BECMG 2500/2503 7000 BKN006
PROB40
TEMPO 2500/2507 3000 BR BKN003
BECMG 2507/2509 9999 SCT008
TEMPO 2509/2516 6000 RA SHRA BKN012
ATIS : +44 151 907 2000 (option 5 or ext 5150)
Met : +44 871 750 5150
No reported NOTAMs for that airfield.
2 SIGMETs reported for the London FIR (EGTT) :
 
Embedded thunderstorms
EGTT SIGMET 07 VALID 242100/250100 EGRR
EGTT LONDON FIR EMBD TS FCST WI N5000 W00200 - N5040 W00130 - N5040 E00030 - N5016 E00027 - N5000 W00015 - N5000 W00200 TOP FL360 MOV NNE 20KT NC=
Embedded thunderstorms
EGTT SIGMET 01 VALID 250100/250500 EGRR
EGTT LONDON FIR EMBD TS FCST WI N5130 W00100 - N5135 E00100 - N5030 E00101 - N5000 W00015 - N5000 W00200 - N5130 W00100 TOP FL360 MOV NNE 20KT NC=



MET'MAP, your aeronautical weather chart ! - Copyright ORBIFLY December 2007 - Disclaimer

ORBIFLY MET'MAP TEAM :

Programming & Development : Alexandra Zaïnal
Concept & Development : Baudouin d'Aumeries
Co-Development & Prog : Marc-Olivier Méhu
Technical & hardware support : Manuel Goepfert

Contact : metmap@orbifly.com




SOURCES & CREDITS :

   NOAA